createdAt,value
2022-08-04T00:02:15.641Z,21.20
2022-08-04T00:04:53.393Z,21.20
2022-08-04T00:07:44.522Z,21.20
2022-08-04T00:10:13.704Z,21.20
2022-08-04T00:12:43.426Z,21.10
2022-08-04T00:15:15.079Z,21.00
2022-08-04T00:17:54.034Z,20.90
2022-08-04T00:20:21.923Z,20.90
2022-08-04T00:22:52.014Z,20.80
2022-08-04T00:25:19.755Z,20.80
2022-08-04T00:27:47.033Z,20.80
2022-08-04T00:30:13.881Z,20.80
2022-08-04T00:32:42.230Z,20.70
2022-08-04T00:35:10.302Z,20.60
2022-08-04T00:37:40.897Z,20.60
2022-08-04T00:40:22.950Z,20.60
2022-08-04T00:43:12.830Z,20.50
2022-08-04T00:46:15.297Z,20.50
2022-08-04T00:48:56.569Z,20.40
2022-08-04T00:51:46.851Z,20.30
2022-08-04T00:54:55.021Z,20.20
2022-08-04T00:57:55.612Z,20.30
2022-08-04T01:00:22.554Z,20.20
2022-08-04T01:03:01.804Z,20.10
2022-08-04T01:06:06.328Z,20.10
2022-08-04T01:08:38.660Z,20.00
2022-08-04T01:11:29.945Z,20.00
2022-08-04T01:14:13.598Z,20.00
2022-08-04T01:16:50.068Z,19.90
2022-08-04T01:19:53.054Z,19.90
2022-08-04T01:22:56.498Z,19.80
2022-08-04T01:26:02.166Z,19.90
2022-08-04T01:29:03.517Z,19.80
2022-08-04T01:31:53.647Z,19.80
2022-08-04T01:34:21.957Z,19.80
2022-08-04T01:37:10.974Z,19.80
2022-08-04T01:39:48.240Z,19.80
2022-08-04T01:42:31.601Z,19.80
2022-08-04T01:45:02.384Z,19.80
2022-08-04T01:47:30.828Z,19.70
2022-08-04T01:50:11.605Z,19.70
2022-08-04T01:52:41.270Z,19.70
2022-08-04T01:55:10.420Z,19.70
2022-08-04T01:57:51.548Z,19.70
2022-08-04T02:00:24.256Z,19.70
2022-08-04T02:02:51.659Z,19.60
2022-08-04T02:05:21.971Z,19.60
2022-08-04T02:08:06.726Z,19.60
2022-08-04T02:10:42.499Z,19.50
2022-08-04T02:13:24.709Z,19.40
2022-08-04T02:16:08.826Z,19.30
2022-08-04T02:19:00.207Z,19.30
2022-08-04T02:21:42.093Z,19.20
2022-08-04T02:24:14.753Z,19.10
2022-08-04T02:26:46.244Z,19.10
2022-08-04T02:29:43.175Z,19.00
2022-08-04T02:32:27.545Z,19.00
2022-08-04T02:35:00.550Z,18.90
2022-08-04T02:37:29.336Z,18.90
2022-08-04T02:40:00.115Z,18.90
2022-08-04T02:42:29.031Z,18.80
2022-08-04T02:44:58.913Z,18.80
2022-08-04T02:48:25.217Z,18.80
2022-08-04T02:50:28.594Z,18.80
2022-08-04T02:52:58.356Z,18.80
2022-08-04T02:55:27.295Z,18.70
2022-08-04T02:57:56.300Z,18.70
2022-08-04T03:00:23.759Z,18.70
2022-08-04T03:03:01.941Z,18.60
2022-08-04T03:05:57.659Z,18.60
2022-08-04T03:08:34.203Z,18.60
2022-08-04T03:11:19.503Z,18.50
2022-08-04T03:14:19.384Z,18.40
2022-08-04T03:17:14.097Z,18.40
2022-08-04T03:19:54.242Z,18.40
2022-08-04T03:23:14.841Z,18.30
2022-08-04T03:26:04.581Z,18.40
2022-08-04T03:28:53.216Z,18.30
2022-08-04T03:31:31.745Z,18.30
2022-08-04T03:34:12.869Z,18.20
2022-08-04T03:37:17.234Z,18.20
2022-08-04T03:40:21.160Z,18.20
2022-08-04T03:43:58.042Z,18.20
2022-08-04T03:46:22.732Z,18.20
2022-08-04T03:49:27.052Z,18.20
2022-08-04T03:52:50.410Z,18.10
2022-08-04T03:55:26.253Z,18.10
2022-08-04T03:58:04.836Z,18.00
2022-08-04T04:00:45.783Z,18.00
2022-08-04T04:03:47.541Z,18.00
2022-08-04T04:06:35.435Z,18.10
2022-08-04T04:09:56.899Z,18.10
2022-08-04T04:13:06.927Z,18.00
2022-08-04T04:16:03.774Z,18.10
2022-08-04T04:18:42.763Z,18.10
2022-08-04T04:21:31.054Z,18.10
2022-08-04T04:24:07.180Z,18.20
2022-08-04T04:27:01.075Z,18.20
2022-08-04T04:30:05.484Z,18.30
2022-08-04T04:32:57.129Z,18.40
2022-08-04T04:35:30.196Z,18.40
2022-08-04T04:38:18.788Z,18.50
2022-08-04T04:40:45.361Z,18.50
2022-08-04T04:43:51.378Z,18.50
2022-08-04T04:46:27.951Z,18.50
2022-08-04T04:49:01.724Z,18.60
2022-08-04T04:51:31.094Z,18.70
2022-08-04T04:54:11.189Z,18.80
2022-08-04T04:57:10.707Z,18.90
2022-08-04T04:59:42.798Z,19.00
2022-08-04T05:02:41.661Z,19.10
2022-08-04T05:05:36.506Z,19.30
2022-08-04T05:08:41.166Z,19.40
2022-08-04T05:11:21.437Z,19.50
2022-08-04T05:14:38.227Z,19.70
2022-08-04T05:17:00.702Z,19.80
2022-08-04T05:20:03.621Z,19.90
2022-08-04T05:22:40.719Z,20.10
2022-08-04T05:25:24.049Z,20.20
2022-08-04T05:28:10.946Z,20.40
2022-08-04T05:30:48.661Z,20.50
2022-08-04T05:33:20.987Z,20.60
2022-08-04T05:36:18.010Z,20.70
2022-08-04T05:38:40.907Z,20.80
2022-08-04T05:41:09.095Z,20.90
2022-08-04T05:43:38.490Z,21.10
2022-08-04T05:46:05.458Z,21.20
2022-08-04T05:48:34.126Z,21.30
2022-08-04T05:51:03.042Z,21.40
2022-08-04T05:53:30.533Z,21.60
2022-08-04T05:55:59.214Z,21.80
2022-08-04T05:58:30.982Z,22.00
2022-08-04T06:01:00.728Z,22.10
2022-08-04T06:03:30.162Z,22.20
2022-08-04T06:05:58.402Z,22.40
2022-08-04T06:08:25.512Z,22.60
2022-08-04T06:10:54.002Z,22.70
2022-08-04T06:13:48.417Z,22.90
2022-08-04T06:16:28.926Z,23.10
2022-08-04T06:19:59.804Z,23.30
2022-08-04T06:21:50.913Z,23.60
2022-08-04T06:24:24.184Z,23.80
2022-08-04T06:26:52.482Z,24.00
2022-08-04T06:29:28.099Z,24.20
2022-08-04T06:32:30.858Z,24.40
2022-08-04T06:34:46.506Z,24.70
2022-08-04T06:37:40.775Z,24.90
2022-08-04T06:40:12.020Z,25.30
2022-08-04T06:42:51.252Z,25.60
2022-08-04T06:45:20.131Z,25.80
2022-08-04T06:47:48.787Z,26.10
2022-08-04T06:51:27.049Z,26.40
2022-08-04T06:53:04.004Z,26.60
2022-08-04T06:55:32.094Z,26.90
2022-08-04T06:58:02.825Z,27.10
2022-08-04T07:00:31.956Z,27.50
2022-08-04T07:02:59.479Z,27.80
2022-08-04T07:05:26.559Z,28.20
2022-08-04T07:07:57.440Z,28.50
2022-08-04T07:10:29.245Z,28.90
2022-08-04T07:13:00.347Z,29.20
2022-08-04T07:15:28.172Z,29.50
2022-08-04T07:18:00.032Z,29.90
2022-08-04T07:20:34.485Z,30.20
2022-08-04T07:23:06.056Z,30.50
2022-08-04T07:25:59.888Z,30.90
2022-08-04T07:28:23.865Z,31.10
2022-08-04T07:30:50.958Z,31.40
2022-08-04T07:33:19.331Z,31.70
2022-08-04T07:36:10.518Z,31.90
2022-08-04T07:38:37.967Z,32.20
2022-08-04T07:41:36.643Z,32.70
2022-08-04T07:44:04.547Z,33.10
2022-08-04T07:46:31.513Z,33.40
2022-08-04T07:49:00.528Z,33.60
2022-08-04T07:51:28.575Z,33.90
2022-08-04T07:53:57.214Z,34.10
2022-08-04T07:56:25.380Z,34.40
2022-08-04T07:58:52.045Z,34.60
2022-08-04T08:01:22.684Z,34.80
2022-08-04T08:03:50.747Z,35.00
2022-08-04T08:06:32.126Z,35.20
2022-08-04T08:09:12.969Z,35.40
2022-08-04T08:12:36.767Z,35.60
2022-08-04T08:14:35.464Z,35.90
2022-08-04T08:17:03.180Z,36.00
2022-08-04T08:19:30.927Z,36.10
2022-08-04T08:22:00.583Z,36.30
2022-08-04T08:24:35.429Z,36.50
2022-08-04T08:27:04.450Z,36.70
2022-08-04T08:29:34.319Z,37.00
2022-08-04T08:32:07.752Z,37.20
2022-08-04T08:34:35.437Z,37.40
2022-08-04T08:37:10.007Z,37.70
2022-08-04T08:40:02.191Z,37.70
2022-08-04T08:42:52.602Z,37.90
2022-08-04T08:46:13.012Z,38.00
2022-08-04T08:49:07.017Z,38.10
2022-08-04T08:51:33.598Z,38.20
2022-08-04T08:54:30.834Z,38.40
2022-08-04T08:57:15.388Z,38.60
2022-08-04T08:59:56.397Z,38.70
2022-08-04T09:02:28.918Z,38.30
2022-08-04T09:05:13.985Z,38.60
2022-08-04T09:07:43.215Z,38.80
2022-08-04T09:10:33.881Z,38.80
2022-08-04T09:13:08.306Z,38.70
2022-08-04T09:15:54.663Z,38.60
2022-08-04T09:18:31.153Z,38.70
2022-08-04T09:21:17.256Z,38.90
2022-08-04T09:24:36.338Z,39.30
2022-08-04T09:27:16.725Z,39.80
2022-08-04T09:30:15.501Z,39.90
2022-08-04T09:32:54.983Z,39.80
2022-08-04T09:35:45.923Z,39.80
2022-08-04T09:38:26.425Z,40.00
2022-08-04T09:41:48.835Z,40.20
2022-08-04T09:44:50.368Z,40.40
2022-08-04T09:47:39.728Z,40.70
2022-08-04T09:50:33.582Z,40.50
2022-08-04T09:53:20.763Z,40.20
2022-08-04T09:55:54.546Z,39.90
2022-08-04T09:58:50.268Z,40.10
2022-08-04T10:01:23.322Z,39.90
2022-08-04T10:03:53.546Z,40.10
2022-08-04T10:06:34.081Z,40.20
2022-08-04T10:09:50.236Z,40.40
2022-08-04T10:12:25.676Z,40.60
2022-08-04T10:15:01.077Z,40.60
2022-08-04T10:17:52.226Z,40.60
2022-08-04T10:21:07.856Z,40.80
2022-08-04T10:24:21.085Z,40.90
2022-08-04T10:27:16.555Z,40.80
2022-08-04T10:29:45.808Z,41.00
2022-08-04T10:32:32.477Z,41.00
2022-08-04T10:35:15.689Z,40.90
2022-08-04T10:38:02.115Z,40.50
2022-08-04T10:40:43.226Z,40.00
2022-08-04T10:43:33.101Z,40.00
2022-08-04T10:46:05.593Z,40.30
2022-08-04T10:48:56.278Z,40.60
2022-08-04T10:51:58.876Z,41.00
2022-08-04T10:54:50.737Z,40.30
2022-08-04T10:57:28.923Z,40.10
2022-08-04T11:00:09.607Z,40.50
2022-08-04T11:02:45.439Z,40.90
2022-08-04T11:05:21.595Z,40.90
2022-08-04T11:07:51.663Z,41.30
2022-08-04T11:10:22.460Z,40.60
2022-08-04T11:12:56.588Z,39.80
2022-08-04T11:15:28.197Z,39.20
2022-08-04T11:17:59.028Z,39.40
2022-08-04T11:20:59.294Z,40.00
2022-08-04T11:23:31.938Z,40.50
2022-08-04T11:26:05.979Z,40.70
2022-08-04T11:29:10.595Z,40.50
2022-08-04T11:31:43.159Z,40.60
2022-08-04T11:34:18.723Z,40.80
2022-08-04T11:37:17.412Z,40.90
2022-08-04T11:39:50.178Z,41.20
2022-08-04T11:42:33.464Z,41.90
2022-08-04T11:45:16.433Z,42.30
2022-08-04T11:47:57.508Z,42.20
2022-08-04T11:50:29.649Z,42.20
2022-08-04T11:52:58.185Z,42.00
2022-08-04T11:55:27.276Z,42.00
2022-08-04T11:57:54.877Z,42.00
2022-08-04T12:00:25.134Z,41.90
2022-08-04T12:03:11.903Z,41.20
2022-08-04T12:06:00.266Z,40.70
2022-08-04T12:08:45.440Z,40.60
2022-08-04T12:11:53.391Z,40.30
2022-08-04T12:14:32.444Z,40.10
2022-08-04T12:17:04.404Z,39.90
2022-08-04T12:20:04.324Z,39.90
2022-08-04T12:22:50.499Z,39.60
2022-08-04T12:25:44.715Z,39.70
2022-08-04T12:28:46.753Z,39.90
2022-08-04T12:31:27.714Z,40.30
2022-08-04T12:34:04.841Z,40.70
2022-08-04T12:36:42.397Z,40.60
2022-08-04T12:39:21.911Z,40.60
2022-08-04T12:41:57.113Z,40.30
2022-08-04T12:44:38.045Z,39.80
2022-08-04T12:47:26.893Z,39.90
2022-08-04T12:50:03.866Z,39.60
2022-08-04T12:52:59.330Z,39.40
2022-08-04T12:55:25.134Z,39.20
2022-08-04T12:57:53.324Z,39.20
2022-08-04T13:00:31.179Z,39.40
2022-08-04T13:03:09.647Z,39.20
2022-08-04T13:05:39.662Z,39.40
2022-08-04T13:08:08.058Z,39.80
2022-08-04T13:10:39.379Z,40.20
2022-08-04T13:13:11.601Z,40.70
2022-08-04T13:15:47.489Z,40.70
2022-08-04T13:18:28.879Z,40.70
2022-08-04T13:21:08.351Z,40.80
2022-08-04T13:26:45.247Z,40.60
2022-08-04T13:29:59.400Z,40.70
2022-08-04T13:30:25.408Z,40.70
2022-08-04T13:32:20.512Z,40.80
2022-08-04T13:34:52.656Z,40.60
2022-08-04T13:37:25.267Z,40.20
2022-08-04T13:39:55.190Z,39.90
2022-08-04T13:42:25.637Z,39.90
2022-08-04T13:44:56.685Z,39.90
2022-08-04T13:47:31.681Z,39.80
2022-08-04T13:50:13.853Z,39.30
2022-08-04T13:52:44.605Z,38.60
2022-08-04T13:55:24.003Z,38.10
2022-08-04T13:57:55.871Z,38.10
2022-08-04T14:00:29.800Z,38.20
2022-08-04T14:03:23.031Z,38.40
2022-08-04T14:06:37.321Z,38.90
2022-08-04T14:09:09.741Z,39.20
2022-08-04T14:12:10.423Z,39.70
2022-08-04T14:14:31.510Z,39.90
2022-08-04T14:17:20.477Z,39.90
2022-08-04T14:20:00.299Z,40.20
2022-08-04T14:22:27.136Z,40.30
2022-08-04T14:25:15.197Z,40.20
2022-08-04T14:27:44.240Z,39.80
2022-08-04T14:30:33.129Z,39.60
2022-08-04T14:34:02.189Z,39.40
2022-08-04T14:35:58.750Z,38.90
2022-08-04T14:38:46.830Z,38.70
2022-08-04T14:41:14.449Z,38.60
2022-08-04T14:43:47.129Z,38.70
2022-08-04T14:46:14.669Z,38.80
2022-08-04T14:49:01.025Z,38.90
2022-08-04T14:51:36.505Z,38.90
2022-08-04T14:54:08.433Z,38.70
2022-08-04T14:56:46.736Z,38.70
2022-08-04T14:59:13.985Z,38.80
2022-08-04T15:01:43.149Z,38.60
2022-08-04T15:04:11.307Z,38.90
2022-08-04T15:06:38.068Z,39.20
2022-08-04T15:09:10.607Z,39.50
2022-08-04T15:11:43.123Z,39.70
2022-08-04T15:14:36.274Z,39.80
2022-08-04T15:16:57.373Z,39.70
2022-08-04T15:19:25.509Z,39.90
2022-08-04T15:21:53.064Z,39.90
2022-08-04T15:24:19.748Z,39.60
2022-08-04T15:26:51.829Z,39.40
2022-08-04T15:29:59.567Z,39.20
2022-08-04T15:32:26.539Z,38.70
2022-08-04T15:35:00.956Z,38.60
2022-08-04T15:37:39.036Z,38.50
2022-08-04T15:40:47.059Z,38.60
2022-08-04T15:43:32.742Z,38.40
2022-08-04T15:46:42.629Z,38.60
2022-08-04T15:48:52.080Z,38.70
2022-08-04T15:51:30.417Z,38.80
2022-08-04T15:54:02.582Z,38.80
2022-08-04T15:56:30.794Z,38.80
2022-08-04T15:58:58.371Z,38.80
2022-08-04T16:01:27.438Z,38.90
2022-08-04T16:03:59.754Z,38.90
2022-08-04T16:06:28.951Z,38.70
2022-08-04T16:09:00.825Z,38.40
2022-08-04T16:11:32.199Z,38.00
2022-08-04T16:13:59.280Z,37.70
2022-08-04T16:16:39.440Z,37.50
2022-08-04T16:19:10.419Z,37.40
2022-08-04T16:21:54.177Z,37.30
2022-08-04T16:24:27.552Z,37.20
2022-08-04T16:26:57.148Z,37.10
2022-08-04T16:29:23.962Z,37.10
2022-08-04T16:32:06.384Z,37.10
2022-08-04T16:34:48.426Z,37.10
2022-08-04T16:37:19.265Z,36.90
2022-08-04T16:39:50.517Z,36.90
2022-08-04T16:42:30.608Z,36.80
2022-08-04T16:45:09.260Z,36.80
2022-08-04T16:47:48.224Z,36.80
2022-08-04T16:50:16.720Z,36.80
2022-08-04T16:52:48.922Z,36.70
2022-08-04T16:55:17.858Z,36.50
2022-08-04T16:57:53.876Z,36.30
2022-08-04T17:00:32.629Z,36.10
2022-08-04T17:03:02.865Z,35.90
2022-08-04T17:05:39.399Z,35.70
2022-08-04T17:10:55.447Z,35.50
2022-08-04T17:14:03.415Z,35.50
2022-08-04T17:16:21.121Z,35.50
2022-08-04T17:18:53.398Z,35.40
2022-08-04T17:21:28.313Z,35.40
2022-08-04T17:24:15.446Z,35.40
2022-08-04T17:26:51.920Z,35.30
2022-08-04T17:29:21.656Z,35.20
2022-08-04T17:31:48.470Z,35.20
2022-08-04T17:34:19.544Z,35.20
2022-08-04T17:36:47.988Z,35.00
2022-08-04T17:39:21.699Z,35.00
2022-08-04T17:41:54.946Z,34.90
2022-08-04T17:44:34.324Z,34.70
2022-08-04T17:47:18.018Z,34.60
2022-08-04T17:49:53.139Z,34.60
2022-08-04T17:52:39.604Z,34.40
2022-08-04T17:55:16.666Z,34.30
2022-08-04T17:57:52.678Z,34.20
2022-08-04T18:00:20.013Z,34.10
2022-08-04T18:02:54.791Z,33.90
2022-08-04T18:05:50.220Z,33.80
2022-08-04T18:08:34.730Z,33.60
2022-08-04T18:11:03.901Z,33.40
2022-08-04T18:13:42.849Z,33.20
2022-08-04T18:16:23.014Z,33.10
2022-08-04T18:19:11.782Z,32.90
2022-08-04T18:21:46.593Z,32.70
2022-08-04T18:24:34.243Z,32.50
2022-08-04T18:27:14.604Z,32.30
2022-08-04T18:29:41.620Z,32.20
2022-08-04T18:32:33.163Z,32.00
2022-08-04T18:35:05.130Z,31.80
2022-08-04T18:38:06.716Z,31.60
2022-08-04T18:40:30.224Z,31.40
2022-08-04T18:43:02.401Z,31.20
2022-08-04T18:45:34.402Z,30.90
2022-08-04T18:48:14.061Z,30.80
2022-08-04T18:51:11.117Z,30.60
2022-08-04T18:53:35.685Z,30.40
2022-08-04T18:56:20.041Z,30.30
2022-08-04T18:58:53.201Z,30.10
2022-08-04T19:01:19.947Z,30.00
2022-08-04T19:03:53.934Z,29.80
2022-08-04T19:06:26.070Z,29.70
2022-08-04T19:08:54.588Z,29.50
2022-08-04T19:11:38.070Z,29.40
2022-08-04T19:14:13.206Z,29.30
2022-08-04T19:16:41.009Z,29.10
2022-08-04T19:19:13.312Z,29.00
2022-08-04T19:22:00.075Z,28.90
2022-08-04T19:24:34.073Z,28.80
2022-08-04T19:27:08.316Z,28.70
2022-08-04T19:29:40.983Z,28.60
2022-08-04T19:32:14.700Z,28.50
2022-08-04T19:37:57.207Z,28.30
2022-08-04T19:40:33.451Z,28.20
2022-08-04T19:43:14.403Z,28.10
2022-08-04T19:45:45.008Z,28.00
2022-08-04T19:48:18.789Z,27.80
2022-08-04T19:50:46.756Z,27.70
2022-08-04T19:53:19.128Z,27.60
2022-08-04T19:55:49.904Z,27.50
2022-08-04T19:58:18.142Z,27.30
2022-08-04T20:00:51.447Z,27.20
2022-08-04T20:03:20.266Z,27.20
2022-08-04T20:05:55.350Z,27.10
2022-08-04T20:08:24.251Z,26.90
2022-08-04T20:10:52.324Z,26.90
2022-08-04T20:13:25.451Z,26.80
2022-08-04T20:16:00.555Z,26.80
2022-08-04T20:18:35.735Z,26.70
2022-08-04T20:21:11.336Z,26.60
2022-08-04T20:23:48.503Z,26.60
2022-08-04T20:26:17.146Z,26.60
2022-08-04T20:28:45.795Z,26.60
2022-08-04T20:31:18.490Z,26.50
2022-08-04T20:33:49.254Z,26.50
2022-08-04T20:36:21.862Z,26.50
2022-08-04T20:38:53.024Z,26.40
2022-08-04T20:41:20.805Z,26.40
2022-08-04T20:43:50.011Z,26.30
2022-08-04T20:46:29.201Z,26.20
2022-08-04T20:48:57.523Z,26.10
2022-08-04T20:51:31.880Z,26.00
2022-08-04T20:54:01.106Z,25.80
2022-08-04T20:56:31.245Z,25.80
2022-08-04T21:01:49.046Z,25.70
2022-08-04T21:04:32.479Z,25.70
2022-08-04T21:09:50.074Z,25.70
2022-08-04T21:12:28.566Z,25.70
2022-08-04T21:14:57.249Z,25.70
2022-08-04T21:17:57.601Z,25.70
2022-08-04T21:20:12.995Z,25.70
2022-08-04T21:22:40.204Z,25.80
2022-08-04T21:25:08.096Z,25.80
2022-08-04T21:27:42.932Z,25.90
2022-08-04T21:30:24.212Z,25.90
2022-08-04T21:32:52.709Z,26.00
2022-08-04T21:35:19.556Z,26.00
2022-08-04T21:37:58.256Z,26.00
2022-08-04T21:40:36.951Z,26.10
2022-08-04T21:43:05.738Z,26.00
2022-08-04T21:45:36.222Z,26.00
2022-08-04T21:48:04.838Z,26.10
2022-08-04T21:50:31.603Z,26.10
2022-08-04T21:52:58.925Z,26.10
2022-08-04T21:56:06.868Z,26.10
2022-08-04T21:58:13.440Z,26.10
2022-08-04T22:00:40.781Z,26.10
2022-08-04T22:03:23.451Z,26.10
2022-08-04T22:05:57.102Z,26.10
2022-08-04T22:08:23.810Z,26.10
2022-08-04T22:10:57.810Z,26.10
2022-08-04T22:13:24.825Z,26.10
2022-08-04T22:16:11.424Z,26.20
2022-08-04T22:18:38.109Z,26.20
2022-08-04T22:21:11.734Z,26.20
2022-08-04T22:23:44.884Z,26.20
2022-08-04T22:26:17.628Z,26.20
2022-08-04T22:28:54.418Z,26.20
2022-08-04T22:31:24.746Z,26.20
2022-08-04T22:33:54.763Z,26.20
2022-08-04T22:36:24.701Z,26.20
2022-08-04T22:39:04.328Z,26.20
2022-08-04T22:41:48.571Z,26.20
2022-08-04T22:44:20.738Z,26.20
2022-08-04T22:46:47.485Z,26.20
2022-08-04T22:49:14.823Z,26.20
2022-08-04T22:51:41.522Z,26.20
2022-08-04T22:54:17.377Z,26.20
2022-08-04T22:56:45.680Z,26.10
2022-08-04T22:59:12.547Z,26.10
2022-08-04T23:01:59.563Z,26.00
2022-08-04T23:04:29.994Z,25.90
2022-08-04T23:06:56.894Z,25.90
2022-08-04T23:09:27.059Z,25.80
2022-08-04T23:12:27.654Z,25.70
2022-08-04T23:14:58.585Z,25.60
2022-08-04T23:17:27.558Z,25.50
2022-08-04T23:19:59.058Z,25.40
2022-08-04T23:22:42.179Z,25.30
2022-08-04T23:25:15.818Z,25.20
2022-08-04T23:27:50.665Z,25.10
2022-08-04T23:30:20.854Z,25.10
2022-08-04T23:32:48.653Z,25.00
2022-08-04T23:35:15.442Z,24.90
2022-08-04T23:37:56.166Z,24.90
2022-08-04T23:40:32.335Z,24.80
2022-08-04T23:43:00.813Z,24.70
2022-08-04T23:46:07.547Z,24.60
2022-08-04T23:48:21.065Z,24.50
2022-08-04T23:50:48.072Z,24.50
2022-08-04T23:53:18.493Z,24.40
2022-08-04T23:55:45.446Z,24.40
2022-08-04T23:58:24.909Z,24.30
